Tiempo atmosférico en la estación meteorológica de Villanueva De Los Infantes, Ciudad Real (870 m.)



Fecha
DESCASC
Temp. máxima en grados centígrados (hora)
DESCASC
Temp. mínima en grados centígrados (hora)
DESCASC
Temp. media en grados centígrados
DESCASC
Racha de viento máxima en m/sg (hora)
DESCASC
Velocidad máxima media en intervalos de 10 minutos(hora)
DESCASC
Precipitaciones diarias en mm
DESCASC
Precipitaciones de 00:00 a 06:00 en mm
DESCASC
Precipitaciones de 06:00 a 12:00 en mm
DESCASC
Precipitaciones de 12:00 a 18:00 en mm
DESCASC
Precipitaciones de 18:00 a 24:00 en mm
DESCASC
28-02-2021 16.1 (14:30) 3 (06:50) 9.6 8.33 (04:00) 5.56 (04:00) 0 0 0 0 0
27-02-2021 17.7 (16:00) 3.2 (08:00) 10.5 11.39 (01:40) 8.06 (01:00) 0 0 0 0 0
26-02-2021 17.8 (13:40) 5.6 (08:10) 11.7 11.39 (22:40) 9.17 (22:40) 0 0 0 0 0
25-02-2021 18.8 (14:40) 4.2 (00:00) 11.5 8.33 (19:10) 5.28 (23:59) 0 0 0 0 0
24-02-2021 16.9 (15:20) 4.2 (00:00) 10.5 8.33 (11:30) 5.28 (03:40) 0.2 0.2 0 0 0
23-02-2021 14.4 (16:10) 2.2 (00:00) 8.3 10.28 (10:10) 7.78 (10:10) 0.4 0.2 0 0.2 0
22-02-2021 8.3 (15:20) 2.6 (00:00) 5.5 10.56 (02:30) 6.94 (01:20) 0.4 0.2 0 0.2 0
21-02-2021 13.5 (14:50) 4.6 (00:00) 9 12.5 (21:30) 8.33 (22:20) 1.6 0 0 0 1.6
20-02-2021 20 (15:30) 6 (00:00) 13 12.78 (13:50) 8.33 (13:50) 0 0 0 0 0
19-02-2021 19.1 (15:00) 4.8 (00:00) 12 11.11 (13:40) 6.94 (16:10) 0 0 0 0 0
18-02-2021 17.4 (15:50) 6.5 (00:00) 11.9 8.33 (14:00) 5.83 (00:10) 0 0 0 0 0
17-02-2021 20.9 (16:20) 6 (00:00) 13.4 8.33 (21:40) 6.11 (23:00) 0 0 0 0 0
16-02-2021 18.5 (16:40) 3.4 (00:00) 11 5.83 (14:10) 3.33 (14:10) 0 0 0 0 0
15-02-2021 17 (16:10) 3.3 (00:00) 10.1 5.28 (16:30) 2.78 (18:10) 0.2 0 0.2 0 0
14-02-2021 18.2 (16:40) 3.7 (00:00) 11 7.5 (08:40) 6.39 (07:30) 0.2 0 0.2 0 0
13-02-2021 14.4 (15:30) 3.1 (00:00) 8.7 6.94 (14:00) 3.89 (16:50) 0.4 0.2 0 0.2 0
12-02-2021 12.5 (16:10) 5.5 (00:00) 9 11.39 (10:40) 6.67 (10:40) 1.6 0 1.4 0.2 0
11-02-2021 15.6 (14:50) 6.5 (00:00) 11.1 7.5 (12:30) 5.28 (12:20) 0.4 0 0.2 0 0.2
10-02-2021 12.3 (14:40) 6 (00:00) 9.2 16.39 (08:40) 9.17 (03:10) 6.4 0.2 5.8 0.2 0.2
09-02-2021 9.6 (14:00) 5.1 (00:00) 7.4 22.5 (14:10) 15.28 (14:10) 4.6 0 0.2 1.6 2.8
08-02-2021 8.9 (15:30) 4.2 (00:00) 6.5 17.22 (13:40) 10.28 (14:50) 10.4 0.4 8.8 0.6 0.6
07-02-2021 8.8 (13:40) 3.9 (00:00) 6.4 11.94 (15:10) 7.5 (13:50) 3 1.2 1.4 0.2 0.2
06-02-2021 8.3 (14:50) 5.8 (00:00) 7.1 13.33 (11:20) 9.44 (11:20) 1.2 0.4 0.4 0.2 0.2
05-02-2021 20.7 (14:50) 8.2 (00:00) 14.5 11.39 (20:10) 8.06 (00:10) 4.6 0 0 0 4.6
04-02-2021 19 (14:40) 5.5 (00:00) 12.3 13.33 (13:40) 8.61 (23:40) 0 0 0 0 0
03-02-2021 14.3 (16:40) 5.9 (00:00) 10.1 8.06 (01:00) 5.56 (17:10) 0.2 0 0.2 0 0
02-02-2021 15.6 (15:20) 5.2 (00:00) 10.4 7.78 (16:20) 5.28 (04:30) 0.4 0.2 0 0.2 0
01-02-2021 13 (14:10) 6.7 (00:00) 9.8 12.22 (13:40) 8.61 (05:20) 0.4 0.2 0.2 0 0
31-01-2021 9.7 (23:59) 5.2 (00:00) 7.4 12.78 (00:30) 8.61 (00:10) 3.4 0 0 1.6 1.8
30-01-2021 11.8 (13:30) 6.4 (00:00) 9.1 17.78 (17:10) 10.83 (15:20) 1 0 0.6 0.2 0.2

Gráficas

Temp. máximas Temp. mínimas Temp. medias Precipitaciones Rachas de viento máximas Velocidades máximas media en intervalos de 10 minutos

Datos horarios

Fecha y hora oficial Temperatura (ºC) Velocidad del viento (km/h) Dirección del viento Racha (km/h) Dirección de racha Precipitación (mm) Presión (hPa) Tendencia (hPa) Humedad (%)
2021-02-28 23:00:00 6.7 15 Sudeste 27 Sudeste 0 -- -- 79
2021-02-28 22:00:00 6.7 13 Sudeste 27 Sudeste 0 -- -- 74
2021-02-28 21:00:00 6.9 14 Sudeste 28 Sudeste 0 -- -- 73
2021-02-28 20:00:00 7.5 14 Sudeste 28 Sudeste 0 -- -- 70
2021-02-28 19:00:00 9.4 10 Sudeste 30 Sur 0 -- -- 65
2021-02-28 18:00:00 11.8 15 Sudeste 28 Sudeste 0 -- -- 57
2021-02-28 17:00:00 13.8 11 Sur 28 Sudeste 0 -- -- 52
2021-02-28 16:00:00 15.3 12 Sur 28 Sur 0 -- -- 49
2021-02-28 15:00:00 16 10 Sur 27 Sur 0 -- -- 48
2021-02-28 14:00:00 15.8 10 Sur 25 Sudeste 0 -- -- 48
2021-02-28 13:00:00 14.5 10 Sur 24 Sur 0 -- -- 52
2021-02-28 12:00:00 12.8 10 Sudeste 23 Sudeste 0 -- -- 58
2021-02-28 11:00:00 10.6 11 Sudeste 27 Sur 0 -- -- 64
2021-02-28 10:00:00 7.7 8 Sur 19 Sudeste 0 -- -- 70
2021-02-28 09:00:00 5.1 8 Sur 23 Sudeste 0 -- -- 80
2021-02-28 08:00:00 3.9 9 Sudeste 19 Sudeste 0 -- -- 81
2021-02-28 07:00:00 3 8 Sudeste 19 Sudeste 0 -- -- 84
2021-02-28 06:00:00 4.1 10 Sudeste 23 Sudeste 0 -- -- 82
2021-02-28 05:00:00 4.4 13 Sudeste 25 Este 0 -- -- 83
2021-02-28 04:00:00 5.2 20 Sudeste 30 Este 0 -- -- 79
2021-02-28 03:00:00 4.4 11 Sudeste 26 Sudeste 0 -- -- 71
2021-02-28 02:00:00 4.8 13 Sudeste 22 Este 0 -- -- 66
2021-02-28 01:00:00 5.6 12 Sudeste 16 Este 0 -- -- 59
2021-02-28 00:00:00 5.8 6 Sudeste 23 Este 0 -- -- 53
2021-02-27 23:00:00 7.5 12 Sudeste 21 Este 0 -- -- 51
2021-02-27 22:00:00 7.8 10 Sudeste 19 Sudeste 0 -- -- 53
2021-02-27 21:00:00 8.8 12 Sudeste 24 Este 0 -- -- 49
2021-02-27 20:00:00 10.4 15 Sudeste 28 Este 0 -- -- 46
2021-02-27 19:00:00 12.1 20 Este 33 Este 0 -- -- 47
2021-02-27 18:00:00 15.4 27 Este 35 Este 0 -- -- 40
2021-02-27 17:00:00 17 18 Este 33 Este 0 -- -- 35
2021-02-27 16:00:00 17.7 5 Sur 15 Este 0 -- -- 28
2021-02-27 15:00:00 16.9 8 Sudeste 18 Este 0 -- -- 27
2021-02-27 14:00:00 16.8 6 Sudeste 17 Sudeste 0 -- -- 26
2021-02-27 13:00:00 15.6 4 Sudoeste 17 Sudeste 0 -- -- 29
2021-02-27 12:00:00 14.4 5 Sudeste 16 Sur 0 -- -- 32
2021-02-27 11:00:00 11.8 12 Este 19 Este 0 -- -- 42
2021-02-27 10:00:00 8.7 6 Sudeste 16 Sudeste 0 -- -- 52
2021-02-27 09:00:00 4.5 6 Sudeste 26 Este 0 -- -- 67
2021-02-27 08:00:00 3.2 19 Este 30 Este 0 -- -- 73
2021-02-27 07:00:00 3.9 25 Este 32 Este 0 -- -- 73
2021-02-27 06:00:00 3.8 26 Este 32 Este 0 -- -- 79
2021-02-27 05:00:00 4.5 16 Sudeste 30 Este 0 -- -- 75
2021-02-27 04:00:00 5.1 18 Sudeste 32 Este 0 -- -- 73
2021-02-27 03:00:00 5.9 22 Este 32 Este 0 -- -- 65
2021-02-27 02:00:00 5.5 26 Este 41 Este 0 -- -- 72
2021-02-27 01:00:00 5.9 29 Este 33 Este 0 -- -- 77
2021-02-27 00:00:00 6.4 27 Este 38 Este 0 -- -- 81
2021-02-26 23:00:00 7.5 32 Este 41 Este 0 -- -- 77
2021-02-26 22:00:00 8 23 Este 37 Este 0 -- -- 71
2021-02-26 21:00:00 8.9 24 Este 36 Este 0 -- -- 69
2021-02-26 20:00:00 10.1 26 Este 37 Este 0 -- -- 67
2021-02-26 19:00:00 12.4 26 Este 35 Este 0 -- -- 57
2021-02-26 18:00:00 14.7 25 Este 33 Este 0 -- -- 48
2021-02-26 17:00:00 16.8 7 Sudeste 28 Este 0 -- -- 39
2021-02-26 16:00:00 17.6 11 Sudeste 26 Sudeste 0 -- -- 37
2021-02-26 15:00:00 17.1 12 Sudeste 27 Este 0 -- -- 40
2021-02-26 14:00:00 17.3 13 Sudeste 30 Este 0 -- -- 40
2021-02-26 13:00:00 17 12 Sudeste 26 Sudeste 0 -- -- 43
2021-02-26 12:00:00 15.2 7 Sur 27 Sur 0 -- -- 51
2021-02-26 11:00:00 13.3 10 Sudeste 21 Sudeste 0 -- -- 58
2021-02-26 10:00:00 9.7 12 Sudeste 26 Sudeste 0 -- -- 72
2021-02-26 09:00:00 7.1 17 Sudeste 32 Sudeste 0 -- -- 80
2021-02-26 08:00:00 5.7 25 Este 31 Este 0 -- -- 84
2021-02-26 07:00:00 6.5 15 Sudeste 25 Este 0 -- -- 79
2021-02-26 06:00:00 6.7 15 Este 22 Sudeste 0 -- -- 76
2021-02-26 05:00:00 6.9 14 Sudeste 26 Sudeste 0 -- -- 76
2021-02-26 04:00:00 7.1 16 Sudeste 26 Este 0 -- -- 76
2021-02-26 03:00:00 7.3 15 Sudeste 26 Sudeste 0 -- -- 76
2021-02-26 02:00:00 7.4 16 Sudeste 25 Sudeste 0 -- -- 75
2021-02-26 01:00:00 8.2 18 Sudeste 32 Sudeste 0 -- -- 73
2021-02-26 00:00:00 8.6 19 Sudeste 29 Sudeste 0 -- -- 72
2021-02-25 23:00:00 8.7 10 Sudeste 22 Sudeste 0 -- -- 70
2021-02-25 22:00:00 9.3 11 Sudeste 25 Sur 0 -- -- 69
2021-02-25 21:00:00 9.9 15 Sur 27 Sur 0 -- -- 69
2021-02-25 20:00:00 10.9 12 Sur 30 Sur 0 -- -- 66
2021-02-25 19:00:00 12.3 15 Sur 28 Sudeste 0 -- -- 59
2021-02-25 18:00:00 14.4 13 Sur 26 Sudeste 0 -- -- 50
2021-02-25 17:00:00 15.9 7 Sur 19 Sur 0 -- -- 46
2021-02-25 16:00:00 17.3 6 Sur 17 Sudoeste 0 -- -- 45
2021-02-25 15:00:00 18.1 5 Oeste 17 Sur 0 -- -- 42
2021-02-25 14:00:00 18.5 8 Sur 19 Sudoeste 0 -- -- 41
2021-02-25 13:00:00 17.6 9 Sur 18 Sudoeste 0 -- -- 45
2021-02-25 12:00:00 16.1 9 Sur 23 Sur 0 -- -- 49
2021-02-25 11:00:00 14.2 8 Sur 18 Sudeste 0 -- -- 57
2021-02-25 10:00:00 10.7 7 Sur 16 Sur 0 -- -- 66
2021-02-25 09:00:00 7 5 Sudeste 11 Sur 0 -- -- 73
2021-02-25 08:00:00 5.6 5 Sudeste 12 Sudeste 0 -- -- 73
2021-02-25 07:00:00 5.4 7 Sudeste 14 Sudeste 0 -- -- 71
2021-02-25 06:00:00 5.6 9 Sudeste 20 Sudeste 0 -- -- 70
2021-02-25 05:00:00 5.2 11 Sudeste 21 Sudeste 0 -- -- 71
2021-02-25 04:00:00 4.8 9 Sudeste 17 Sudeste 0 -- -- 72
2021-02-25 03:00:00 4.3 10 Sudeste 19 Sudeste 0 -- -- 73
2021-02-25 02:00:00 5.2 10 Sudeste 16 Sudeste 0 -- -- 70
2021-02-25 01:00:00 4.7 9 Sudeste 19 Este 0 -- -- 75
2021-02-25 00:00:00 6.7 11 Sudeste 20 Sudeste 0 -- -- 70
2021-02-24 23:00:00 7.2 10 Sudeste 20 Sudeste 0 -- -- 70
2021-02-24 22:00:00 7.9 13 Sudeste 22 Sudeste 0 -- -- 72
2021-02-24 21:00:00 8.4 11 Sudeste 24 Sudeste 0 -- -- 71
2021-02-24 20:00:00 9.4 12 Sudeste 22 Sudeste 0 -- -- 68
2021-02-24 19:00:00 11.5 10 Sudeste 26 Sudeste 0 -- -- 61
2021-02-24 18:00:00 14.3 13 Sudeste 27 Sudeste 0 -- -- 52
2021-02-24 17:00:00 16 11 Sudeste 26 Sur 0 -- -- 49
2021-02-24 16:00:00 16.9 9 Sudeste 23 Sur 0 -- -- 46
2021-02-24 15:00:00 16.5 10 Sur 29 Sudeste 0 -- -- 48
2021-02-24 14:00:00 15.5 13 Sudeste 27 Sudeste 0 -- -- 52
2021-02-24 13:00:00 15 12 Sudeste 30 Sur 0 -- -- 56
2021-02-24 12:00:00 13.5 12 Sur 30 Sur 0 -- -- 63
2021-02-24 11:00:00 11.7 12 Sur 24 Sudeste 0 -- -- 68
2021-02-24 10:00:00 8.7 9 Sudeste 20 Sudeste 0 -- -- 79
2021-02-24 09:00:00 5.6 8 Sudeste 21 Este 0 -- -- 88
2021-02-24 08:00:00 4.4 13 Sudeste 22 Sudeste 0 -- -- 88
2021-02-24 07:00:00 5.2 15 Sudeste 26 Sudeste 0 -- -- 85
2021-02-24 06:00:00 5.6 15 Sudeste 29 Sudeste 0.2 -- -- 85
2021-02-24 05:00:00 5.3 15 Sudeste 23 Sudeste 0 -- -- 86
2021-02-24 04:00:00 5.5 15 Sudeste 28 Sudeste 0 -- -- 86
2021-02-24 03:00:00 5.6 13 Sudeste 25 Sudeste 0 -- -- 85
2021-02-24 02:00:00 5.9 14 Sudeste 27 Sudeste 0 -- -- 85
2021-02-24 01:00:00 6.2 13 Sudeste 25 Sudeste 0 -- -- 83
2021-02-24 00:00:00 6.6 17 Sudeste 28 Sudeste 0 -- -- 80
2021-02-23 23:00:00 7.2 14 Sudeste 27 Sudeste 0 -- -- 74
2021-02-23 22:00:00 7.3 16 Sudeste 28 Sudeste 0 -- -- 73
2021-02-23 21:00:00 7.8 15 Sudeste 23 Sudeste 0 -- -- 69
2021-02-23 20:00:00 8.1 10 Sudeste 16 Sudeste 0 -- -- 67
2021-02-23 19:00:00 10.1 8 Sudeste 23 Sudeste 0 -- -- 58
2021-02-23 18:00:00 12.4 9 Sudeste 22 Sur 0 -- -- 50
2021-02-23 17:00:00 13.6 9 Sudeste 24 Sudeste 0 -- -- 48
2021-02-23 16:00:00 14.3 8 Sudeste 26 Este 0.2 -- -- 47
2021-02-23 15:00:00 13.5 10 Sudeste 22 Este 0 -- -- 52
2021-02-23 14:00:00 13.1 11 Sudeste 31 Sur 0 -- -- 57
2021-02-23 13:00:00 11.5 10 Sudeste 28 Este 0 -- -- 62
2021-02-23 12:00:00 9.9 14 Sudeste 27 Este 0 -- -- 69
2021-02-23 11:00:00 8.3 15 Sudeste 37 Este 0 -- -- 76
2021-02-23 10:00:00 6.6 25 Este 36 Este 0 -- -- 84
2021-02-23 09:00:00 3.9 13 Sudeste 18 Este 0 -- -- 89
2021-02-23 08:00:00 2.3 5 Sudeste 8 Sudeste 0 -- -- 87
2021-02-23 07:00:00 2.6 3 Sur 5 Sudeste 0 -- -- 86
2021-02-23 06:00:00 3.3 4 Sudeste 9 Sur 0 -- -- 87
2021-02-23 05:00:00 3.4 4 Sudeste 6 Sur 0 -- -- 84
2021-02-23 04:00:00 4 0 Calma 9 Noroeste 0 -- -- 81
2021-02-23 03:00:00 4.5 3 Noroeste 8 Oeste 0 -- -- 79
2021-02-23 02:00:00 4.4 4 Oeste 8 Sudoeste 0.2 -- -- 80
2021-02-23 01:00:00 4.2 5 Oeste 7 Oeste 0 -- -- 78
2021-02-23 00:00:00 4.8 3 Noroeste 11 Oeste 0 -- -- 78
2021-02-22 23:00:00 5.6 6 Oeste 11 Oeste 0 -- -- 83
2021-02-22 22:00:00 6.2 3 Sudoeste 9 Sudoeste 0 -- -- 84
2021-02-22 21:00:00 6 4 Sur 10 Este 0 -- -- 82
2021-02-22 20:00:00 6.4 6 Este 8 Este 0 -- -- 76
2021-02-22 19:00:00 7.3 5 Norte 16 Noroeste 0 -- -- 73
2021-02-22 18:00:00 7.6 10 Noroeste 21 Noroeste 0 -- -- 67
2021-02-22 17:00:00 7.6 12 Noroeste 21 Norte 0 -- -- 64
2021-02-22 16:00:00 7.9 13 Noroeste 24 Noroeste 0.2 -- -- 60
2021-02-22 15:00:00 7.9 14 Noroeste 26 Oeste 0 -- -- 62
2021-02-22 14:00:00 7.1 11 Oeste 26 Oeste 0 -- -- 68
2021-02-22 13:00:00 6.5 16 Oeste 25 Oeste 0 -- -- 74
2021-02-22 12:00:00 5.4 13 Oeste 24 Oeste 0 -- -- 80
2021-02-22 11:00:00 4 14 Oeste 27 Oeste 0 -- -- 84
2021-02-22 10:00:00 3.3 17 Oeste 30 Sudoeste 0 -- -- 90
2021-02-22 09:00:00 2.6 20 Oeste 31 Oeste 0 -- -- 91
2021-02-22 08:00:00 2.7 20 Oeste 28 Oeste 0 -- -- 92
2021-02-22 07:00:00 2.8 19 Oeste 27 Oeste 0 -- -- 93
2021-02-22 06:00:00 3.5 16 Oeste 33 Oeste 0 -- -- 91
2021-02-22 05:00:00 3.7 22 Oeste 33 Oeste 0 -- -- 92
2021-02-22 04:00:00 4.3 22 Oeste 37 Oeste 0.2 -- -- 91
2021-02-22 03:00:00 4.8 21 Oeste 38 Oeste 0 -- -- 90
2021-02-22 02:00:00 4.9 22 Oeste 37 Oeste 0 -- -- 90
2021-02-22 01:00:00 4.8 24 Oeste 37 Oeste 0 -- -- 92
2021-02-22 00:00:00 4.7 26 Oeste 39 Oeste 0 -- -- 93
2021-02-21 23:00:00 4.6 25 Oeste 43 Oeste 0.2 -- -- 94
2021-02-21 22:00:00 5.1 23 Oeste 45 Oeste 0.2 -- -- 94
2021-02-21 21:00:00 6.1 22 Sudoeste 33 Sudoeste 0.6 -- -- 93
2021-02-21 20:00:00 6.8 22 Sudoeste 39 Sudoeste 0.2 -- -- 87
2021-02-21 19:00:00 8 21 Oeste 35 Oeste 0.4 -- -- 85
2021-02-21 18:00:00 10.5 15 Oeste 26 Oeste 0 -- -- 72
2021-02-21 17:00:00 11.2 17 Oeste 26 Oeste 0 -- -- 64
2021-02-21 16:00:00 13.1 3 Sudoeste 12 Oeste 0 -- -- 50
2021-02-21 15:00:00 13.5 4 Oeste 9 Sudoeste 0 -- -- 48
2021-02-21 14:00:00 13.3 2 Sudeste 12 Sur 0 -- -- 52
2021-02-21 13:00:00 12.4 6 Sur 17 Sur 0 -- -- 54
2021-02-21 12:00:00 12.3 7 Sur 14 Sur 0 -- -- 59
2021-02-21 11:00:00 10 6 Sudeste 25 Este 0 -- -- 70
2021-02-21 10:00:00 7.6 20 Este 28 Sudeste 0 -- -- 76
2021-02-21 09:00:00 7 15 Este 21 Este 0 -- -- 75
2021-02-21 08:00:00 6.8 13 Este 20 Este 0 -- -- 72
2021-02-21 07:00:00 8.9 5 Sudeste 23 Sudeste 0 -- -- 56
2021-02-21 06:00:00 9.3 10 Sudeste 25 Este 0 -- -- 52
2021-02-21 05:00:00 9.9 11 Sudeste 29 Sudeste 0 -- -- 50
2021-02-21 04:00:00 8.8 16 Este 29 Este 0 -- -- 55
2021-02-21 03:00:00 8.8 18 Este 26 Este 0 -- -- 59
2021-02-21 02:00:00 10.5 11 Sudeste 22 Sudeste 0 -- -- 51
2021-02-21 01:00:00 10.4 8 Sudeste 17 Sur 0 -- -- 56
2021-02-21 00:00:00 10.5 8 Sudeste 18 Sur 0 -- -- 58
2021-02-20 23:00:00 11.4 9 Sur 19 Sudeste 0 -- -- 57
2021-02-20 22:00:00 11.4 9 Sur 14 Sur 0 -- -- 57
2021-02-20 21:00:00 11.9 5 Sudeste 12 Sudeste 0 -- -- 48
2021-02-20 20:00:00 13.6 5 Sur 6 Sur 0 -- -- 39
2021-02-20 19:00:00 15.5 6 Oeste 10 Oeste 0 -- -- 35
2021-02-20 18:00:00 16.8 7 Oeste 22 Oeste 0 -- -- 33
2021-02-20 17:00:00 18.6 15 Sudoeste 32 Sudoeste 0 -- -- 30
2021-02-20 16:00:00 19.5 17 Sudoeste 32 Sudoeste 0 -- -- 27
2021-02-20 15:00:00 19.5 18 Sudoeste 43 Sudoeste 0 -- -- 29
2021-02-20 14:00:00 19.1 28 Sudoeste 46 Sudoeste 0 -- -- 27
2021-02-20 13:00:00 18.4 27 Sudoeste 45 Sudoeste 0 -- -- 30
2021-02-20 12:00:00 15.6 19 Sudoeste 32 Sudoeste 0 -- -- 36
2021-02-20 11:00:00 13 16 Sur 24 Sur 0 -- -- 45
2021-02-20 10:00:00 9.8 10 Sur 14 Sur 0 -- -- 54
2021-02-20 09:00:00 7.3 5 Sur 12 Sudeste 0 -- -- 54
2021-02-20 08:00:00 7.2 5 Sudeste 11 Sudeste 0 -- -- 52
2021-02-20 07:00:00 6.2 7 Sur 10 Sur 0 -- -- 64
2021-02-20 06:00:00 6.6 6 Sur 13 Sur 0 -- -- 65
2021-02-20 05:00:00 6.9 6 Sudeste 13 Sudeste 0 -- -- 65
2021-02-20 04:00:00 6 10 Sur 14 Sur 0 -- -- 68
2021-02-20 03:00:00 6.7 5 Sur 12 Sur 0 -- -- 66
2021-02-20 02:00:00 7.6 8 Sur 13 Sur 0 -- -- 63
2021-02-20 01:00:00 8 4 Sudeste 9 Sudeste 0 -- -- 55
2021-02-20 00:00:00 8.3 5 Sur 9 Sudeste 0 -- -- 49
2021-02-19 23:00:00 9 5 Sur 12 Sudeste 0 -- -- 48
2021-02-19 22:00:00 11.2 6 Sur 8 Sur 0 -- -- 41
2021-02-19 21:00:00 13.5 6 Sudoeste 11 Oeste 0 -- -- 37
2021-02-19 20:00:00 14 8 Oeste 12 Sudoeste 0 -- -- 35
2021-02-19 19:00:00 15.2 8 Sudoeste 22 Oeste 0 -- -- 32
2021-02-19 18:00:00 17.7 16 Sudoeste 32 Oeste 0 -- -- 26
2021-02-19 17:00:00 18.8 19 Sudoeste 37 Sudoeste 0 -- -- 25
2021-02-19 16:00:00 19 22 Sudoeste 39 Sudoeste 0 -- -- 26
2021-02-19 15:00:00 19.1 22 Sudoeste 36 Sudoeste 0 -- -- 27
2021-02-19 14:00:00 18.6 19 Sudoeste 40 Sudoeste 0 -- -- 31
2021-02-19 13:00:00 17.4 17 Sudoeste 29 Sudoeste 0 -- -- 33
2021-02-19 12:00:00 14.9 16 Sudoeste 27 Sur 0 -- -- 43
2021-02-19 11:00:00 12 13 Sur 21 Sudoeste 0 -- -- 56
2021-02-19 10:00:00 8.9 5 Sur 12 Sudeste 0 -- -- 76
2021-02-19 09:00:00 6.2 9 Sur 13 Sudeste 0 -- -- 84
2021-02-19 08:00:00 4.8 9 Sur 12 Sur 0 -- -- 85
2021-02-19 07:00:00 5.1 6 Sur 12 Sur 0 -- -- 89
2021-02-19 06:00:00 5.1 8 Sur 13 Sur 0 -- -- 89
2021-02-19 05:00:00 5.2 8 Sur 11 Sur 0 -- -- 90
2021-02-19 04:00:00 5.3 6 Sur 12 Sur 0 -- -- 87
2021-02-19 03:00:00 5.6 6 Sur 13 Sudeste 0 -- -- 87
2021-02-19 02:00:00 6 9 Sur 12 Sur 0 -- -- 83
2021-02-19 01:00:00 6.9 7 Sur 12 Sudeste 0 -- -- 79
2021-02-19 00:00:00 7.7 5 Sur 9 Sur 0 -- -- 78
2021-02-18 23:00:00 8.8 5 Sur 8 Sur 0 -- -- 76
2021-02-18 22:00:00 9.8 4 Sur 8 Sur 0 -- -- 71
2021-02-18 21:00:00 10.8 5 Sur 8 Oeste 0 -- -- 62
2021-02-18 20:00:00 11.9 6 Sudoeste 10 Norte 0 -- -- 48
2021-02-18 19:00:00 13.7 5 Norte 13 Noroeste 0 -- -- 42
2021-02-18 18:00:00 16.3 9 Noroeste 19 Oeste 0 -- -- 34
2021-02-18 17:00:00 17.3 13 Oeste 20 Noroeste 0 -- -- 33
2021-02-18 16:00:00 17.3 14 Noroeste 23 Noroeste 0 -- -- 32
2021-02-18 15:00:00 17 17 Oeste 26 Noroeste 0 -- -- 32
2021-02-18 14:00:00 16.9 17 Oeste 30 Oeste 0 -- -- 33
2021-02-18 13:00:00 16.9 10 Sudoeste 18 Sudoeste 0 -- -- 41
2021-02-18 12:00:00 14.8 6 Sur 15 Sur 0 -- -- 51
2021-02-18 11:00:00 11.5 9 Sur 14 Sur 0 -- -- 61
2021-02-18 10:00:00 9 5 Sur 11 Sur 0 -- -- 63
2021-02-18 09:00:00 6.7 6 Sur 10 Sur 0 -- -- 64
2021-02-18 08:00:00 6.8 6 Sur 10 Sur 0 -- -- 60
2021-02-18 07:00:00 7.4 6 Sur 9 Sur 0 -- -- 56
2021-02-18 06:00:00 9.7 6 Sudeste 13 Este 0 -- -- 45
2021-02-18 05:00:00 10.3 12 Este 19 Este 0 -- -- 44
2021-02-18 04:00:00 10.4 17 Este 20 Este 0 -- -- 46
2021-02-18 03:00:00 10 17 Este 21 Este 0 -- -- 49
2021-02-18 02:00:00 10.3 20 Este 30 Este 0 -- -- 52
2021-02-18 01:00:00 11.3 19 Este 21 Este 0 -- -- 53
2021-02-18 00:00:00 11.7 21 Este 24 Este 0 -- -- 50
2021-02-17 23:00:00 11.3 22 Este 24 Este 0 -- -- 53
2021-02-17 22:00:00 12.1 19 Este 30 Este 0 -- -- 50
2021-02-17 21:00:00 12.4 16 Este 20 Este 0 -- -- 42
2021-02-17 20:00:00 14.5 3 Norte 8 Norte 0 -- -- 33
2021-02-17 19:00:00 16.2 5 Norte 8 Norte 0 -- -- 33
2021-02-17 18:00:00 18.7 5 Norte 14 Noroeste 0 -- -- 30
2021-02-17 17:00:00 20.7 4 Oeste 21 Sudoeste 0 -- -- 26
2021-02-17 16:00:00 20.5 6 Sudoeste 21 Oeste 0 -- -- 27
2021-02-17 15:00:00 20.4 16 Oeste 26 Sudoeste 0 -- -- 25
2021-02-17 14:00:00 19.7 12 Oeste 22 Oeste 0 -- -- 26
2021-02-17 13:00:00 19 10 Sudoeste 16 Sudoeste 0 -- -- 33
2021-02-17 12:00:00 15.7 8 Sur 15 Sur 0 -- -- 44
2021-02-17 11:00:00 12.8 8 Sudoeste 14 Sur 0 -- -- 52
2021-02-17 10:00:00 9.1 5 Sur 12 Sur 0 -- -- 64
2021-02-17 09:00:00 6.5 6 Sur 12 Sudeste 0 -- -- 70
2021-02-17 08:00:00 6.2 5 Sur 8 Sudeste 0 -- -- 66
2021-02-17 07:00:00 6.2 6 Sur 8 Sudeste 0 -- -- 67
2021-02-17 06:00:00 6.6 5 Sur 9 Sur 0 -- -- 67
2021-02-17 05:00:00 7 8 Sur 13 Sur 0 -- -- 64
2021-02-17 04:00:00 6.9 5 Sur 14 Sur 0 -- -- 65
2021-02-17 03:00:00 6.7 10 Sur 13 Sur 0 -- -- 67
2021-02-17 02:00:00 6.5 9 Sur 13 Sudeste 0 -- -- 67
2021-02-17 01:00:00 6.8 7 Sur 10 Sudeste 0 -- -- 64
2021-02-17 00:00:00 7.2 6 Sur 10 Sur 0 -- -- 59
2021-02-16 23:00:00 7.9 6 Sur 10 Sur 0 -- -- 60
2021-02-16 22:00:00 8.6 6 Sur 11 Sur 0 -- -- 64
2021-02-16 21:00:00 9.8 5 Sur 9 Sur 0 -- -- 63
2021-02-16 20:00:00 12.1 5 Sur 10 Sudoeste 0 -- -- 59
2021-02-16 19:00:00 15.2 7 Sudoeste 14 Sudoeste 0 -- -- 50
2021-02-16 18:00:00 17.7 5 Noroeste 12 Oeste 0 -- -- 38
2021-02-16 17:00:00 18 4 Norte 15 Oeste 0 -- -- 38
2021-02-16 16:00:00 18.3 8 Noroeste 18 Noroeste 0 -- -- 35
2021-02-16 15:00:00 18 10 Noroeste 21 Sudoeste 0 -- -- 33
2021-02-16 14:00:00 17.6 8 Oeste 19 Sudoeste 0 -- -- 42
2021-02-16 13:00:00 15.9 9 Sudoeste 19 Sudoeste 0 -- -- 48
2021-02-16 12:00:00 13.1 9 Sudoeste 16 Sudoeste 0 -- -- 56
2021-02-16 11:00:00 10.3 6 Sudoeste 12 Sur 0 -- -- 70
2021-02-16 10:00:00 7.8 7 Sudoeste 12 Sudoeste 0 -- -- 77
2021-02-16 09:00:00 5.1 8 Sur 13 Sur 0 -- -- 84
2021-02-16 08:00:00 3.9 7 Sur 12 Sur 0 -- -- 83
2021-02-16 07:00:00 3.4 7 Sur 13 Sudeste 0 -- -- 85
2021-02-16 06:00:00 4.3 7 Sur 11 Sur 0 -- -- 84
2021-02-16 05:00:00 5.7 5 Sur 10 Sudeste 0 -- -- 81
2021-02-16 04:00:00 6.1 6 Sur 9 Sur 0 -- -- 81
2021-02-16 03:00:00 5.4 8 Sudeste 11 Sudeste 0 -- -- 83
2021-02-16 02:00:00 5.9 8 Sudeste 13 Este 0 -- -- 83
2021-02-16 01:00:00 6.1 8 Sudeste 13 Sudeste 0 -- -- 84
2021-02-16 00:00:00 6.4 5 Sudeste 12 Sur 0 -- -- 82
2021-02-15 23:00:00 6.8 4 Sur 10 Sur 0 -- -- 80
2021-02-15 22:00:00 7 5 Sur 10 Sur 0 -- -- 77
2021-02-15 21:00:00 8.6 5 Sur 9 Sur 0 -- -- 71
2021-02-15 20:00:00 10.7 8 Sudoeste 11 Sudoeste 0 -- -- 64
2021-02-15 19:00:00 12.7 8 Sudoeste 14 Sudoeste 0 -- -- 60
2021-02-15 18:00:00 15.3 9 Sudoeste 16 Sur 0 -- -- 51
2021-02-15 17:00:00 16.8 8 Sudoeste 19 Sur 0 -- -- 47
2021-02-15 16:00:00 16.9 8 Sudoeste 14 Sur 0 -- -- 50
2021-02-15 15:00:00 15.9 5 Sudoeste 13 Sudoeste 0 -- -- 53
2021-02-15 14:00:00 14.6 4 Sudoeste 12 Sur 0 -- -- 60
2021-02-15 13:00:00 12.7 3 Sur 9 Sur 0 -- -- 65
2021-02-15 12:00:00 10.3 3 Sur 10 Sudoeste 0.2 -- -- 74
2021-02-15 11:00:00 8.1 5 Sur 10 Sur 0 -- -- 82
2021-02-15 10:00:00 6.1 2 Sur 5 Sudeste 0 -- -- 88
2021-02-15 09:00:00 4.1 2 Sudeste 4 Este 0 -- -- 93
2021-02-15 08:00:00 3.3 3 Sur 6 Sur 0 -- -- 90
2021-02-15 07:00:00 3.7 2 Sur 8 Sur 0 -- -- 90
2021-02-15 06:00:00 4 3 Sur 10 Sur 0 -- -- 90
2021-02-15 05:00:00 4 6 Sur 11 Sur 0 -- -- 88
2021-02-15 04:00:00 4.8 7 Sur 9 Sur 0 -- -- 88
2021-02-15 03:00:00 5.2 5 Sur 11 Sudeste 0 -- -- 86
2021-02-15 02:00:00 5.7 8 Sur 12 Sudeste 0 -- -- 84
2021-02-15 01:00:00 6.5 4 Sudeste 13 Sudeste 0 -- -- 83
2021-02-15 00:00:00 7.3 5 Sudeste 11 Sur 0 -- -- 81
2021-02-14 23:00:00 7.7 5 Sudeste 12 Sudeste 0 -- -- 79
2021-02-14 22:00:00 8.4 6 Sudeste 13 Sur 0 -- -- 75
2021-02-14 21:00:00 9.8 4 Sudeste 8 Sudeste 0 -- -- 69
2021-02-14 20:00:00 10.6 6 Sudeste 12 Sur 0 -- -- 69
2021-02-14 19:00:00 12.6 5 Nordeste 9 Norte 0 -- -- 63
2021-02-14 18:00:00 15.7 8 Noroeste 15 Oeste 0 -- -- 52
2021-02-14 17:00:00 18 5 Oeste 13 Sudoeste 0 -- -- 45
2021-02-14 16:00:00 17.8 6 Oeste 13 Oeste 0 -- -- 40
2021-02-14 15:00:00 16.5 0 Calma 16 Este 0 -- -- 44
2021-02-14 14:00:00 16.5 3 Sudoeste 11 Sur 0 -- -- 47
2021-02-14 13:00:00 14.4 3 Sudoeste 16 Este 0 -- -- 50
2021-02-14 12:00:00 12.4 6 Sudeste 19 Este 0 -- -- 55
2021-02-14 11:00:00 10.2 13 Este 24 Este 0.2 -- -- 71
2021-02-14 10:00:00 7.7 17 Este 26 Sudeste 0 -- -- 81
2021-02-14 09:00:00 5.1 20 Este 27 Este 0 -- -- 84
2021-02-14 08:00:00 3.9 15 Sudeste 25 Este 0 -- -- 84
2021-02-14 07:00:00 4.8 21 Este 23 Este 0 -- -- 83
2021-02-14 06:00:00 4.4 10 Sudeste 17 Sudeste 0 -- -- 86
2021-02-14 05:00:00 4.9 5 Este 11 Este 0 -- -- 81
2021-02-14 04:00:00 6.2 7 Este 10 Este 0 -- -- 77
2021-02-14 03:00:00 6.3 11 Este 13 Nordeste 0 -- -- 77
2021-02-14 02:00:00 7.9 6 Nordeste 7 Nordeste 0 -- -- 68
2021-02-14 01:00:00 8.6 6 Este 9 Este 0 -- -- 65
2021-02-14 00:00:00 6.9 4 Sudeste 14 Este 0 -- -- 74
2021-02-13 23:00:00 7.8 8 Este 15 Este 0 -- -- 70
2021-02-13 22:00:00 8.5 5 Nordeste 7 Nordeste 0 -- -- 75
2021-02-13 21:00:00 9.2 4 Norte 7 Nordeste 0 -- -- 71
2021-02-13 20:00:00 9.5 4 Nordeste 8 Noroeste 0 -- -- 70
2021-02-13 19:00:00 10.7 4 Noroeste 18 Noroeste 0 -- -- 64
2021-02-13 18:00:00 12.6 11 Norte 21 Noroeste 0 -- -- 52
2021-02-13 17:00:00 14.2 13 Noroeste 22 Noroeste 0.2 -- -- 43
2021-02-13 16:00:00 14.4 12 Noroeste 20 Noroeste 0 -- -- 47
2021-02-13 15:00:00 14.1 10 Noroeste 20 Oeste 0 -- -- 51
2021-02-13 14:00:00 13.4 13 Oeste 25 Oeste 0 -- -- 57
2021-02-13 13:00:00 12.3 9 Oeste 19 Sudoeste 0 -- -- 68
2021-02-13 08:00:00 -- -- -- -- -- -- -- -- --
2021-02-13 07:00:00 -- -- -- -- -- -- -- -- --
2021-02-13 06:00:00 -- -- -- -- -- -- -- -- --
2021-02-13 05:00:00 4.1 4 Sur 8 Sudoeste 0 -- -- 98
2021-02-13 04:00:00 3.9 5 Sudoeste 9 Sudoeste 0 -- -- 98
2021-02-13 03:00:00 3.1 6 Sur 11 Sur 0.2 -- -- 96
2021-02-13 02:00:00 4 5 Sur 9 Sudoeste 0 -- -- 95
2021-02-13 01:00:00 5.3 3 Noroeste 7 Noroeste 0 -- -- 94
2021-02-13 00:00:00 5.5 3 Norte 15 Oeste 0 -- -- 92
2021-02-12 23:00:00 6.1 8 Oeste 13 Oeste 0 -- -- 91
2021-02-12 22:00:00 7 9 Noroeste 20 Oeste 0 -- -- 87
2021-02-12 21:00:00 8.1 11 Noroeste 19 Oeste 0 -- -- 83
2021-02-12 20:00:00 8.8 11 Noroeste 20 Noroeste 0 -- -- 80
2021-02-12 19:00:00 9.8 11 Noroeste 28 Oeste 0 -- -- 75
2021-02-12 18:00:00 11.4 21 Noroeste 34 Oeste 0 -- -- 67
2021-02-12 17:00:00 12.4 17 Noroeste 32 Oeste 0 -- -- 62
2021-02-12 16:00:00 12.4 20 Noroeste 35 Norte 0 -- -- 64
2021-02-12 15:00:00 11.6 21 Noroeste 40 Noroeste 0.2 -- -- 68
2021-02-12 14:00:00 11.2 20 Noroeste 37 Noroeste 0 -- -- 70
2021-02-12 13:00:00 10.8 19 Noroeste 39 Noroeste 0 -- -- 71
2021-02-12 12:00:00 10.1 22 Noroeste 38 Noroeste 0 -- -- 78
2021-02-12 11:00:00 9.4 22 Noroeste 41 Oeste 0 -- -- 86
2021-02-12 10:00:00 9.5 16 Oeste 35 Oeste 1.4 -- -- 96
2021-02-12 09:00:00 9.2 17 Oeste 34 Sudoeste 0 -- -- 98
2021-02-12 08:00:00 9 21 Sudoeste 28 Sudoeste 0 -- -- 98
2021-02-12 07:00:00 8.5 16 Sudoeste 24 Sudoeste 0 -- -- 98
2021-02-12 06:00:00 9.3 12 Sudoeste 23 Sudoeste 0 -- -- 96
2021-02-12 05:00:00 9.5 18 Sudoeste 26 Sudoeste 0 -- -- 96
2021-02-12 04:00:00 9.5 15 Sudoeste 22 Oeste 0 -- -- 97
2021-02-12 03:00:00 9.7 12 Sudoeste 21 Sudoeste 0 -- -- 97
2021-02-12 02:00:00 9.9 11 Sudoeste 22 Sudoeste 0 -- -- 97
2021-02-12 01:00:00 9.8 14 Sudoeste 23 Sudoeste 0 -- -- 97
2021-02-12 00:00:00 9.9 12 Sur 17 Sudoeste 0 -- -- 96
2021-02-11 23:00:00 9.8 8 Sur 12 Sur 0 -- -- 96
2021-02-11 22:00:00 9.5 8 Sudoeste 15 Sudoeste 0 -- -- 96
2021-02-11 21:00:00 10.1 7 Sudoeste 14 Sur 0.2 -- -- 94
2021-02-11 20:00:00 10.7 9 Sudoeste 14 Sudoeste 0 -- -- 93
2021-02-11 19:00:00 11.3 9 Sudoeste 17 Sudoeste 0 -- -- 90
2021-02-11 18:00:00 12.1 11 Sudoeste 20 Sudoeste 0 -- -- 87
2021-02-11 17:00:00 13.1 12 Sudoeste 27 Sudoeste 0 -- -- 84
2021-02-11 16:00:00 14.7 13 Sudoeste 24 Sudoeste 0 -- -- 77
2021-02-11 15:00:00 15.2 12 Sudoeste 20 Sudoeste 0 -- -- 74
2021-02-11 14:00:00 14.2 11 Sudoeste 23 Sudoeste 0 -- -- 78
2021-02-11 13:00:00 13.5 15 Sudoeste 27 Sudoeste 0 -- -- 82
2021-02-11 12:00:00 12.9 13 Sudoeste 22 Sudoeste 0 -- -- 85
2021-02-11 11:00:00 11.4 10 Sudoeste 17 Sur 0.2 -- -- 93
2021-02-11 10:00:00 9.7 10 Sudoeste 15 Sudoeste 0 -- -- 98
2021-02-11 09:00:00 8.3 6 Sudoeste 15 Oeste 0 -- -- 99
2021-02-11 08:00:00 8.6 13 Sudoeste 24 Sudoeste 0 -- -- 98
2021-02-11 07:00:00 8.6 10 Sudoeste 14 Sudoeste 0 -- -- 98
2021-02-11 06:00:00 8.1 5 Sudoeste 10 Oeste 0 -- -- 97
2021-02-11 05:00:00 8 6 Sudoeste 10 Oeste 0 -- -- 97
2021-02-11 04:00:00 7.6 8 Sudoeste 14 Oeste 0 -- -- 96
2021-02-11 03:00:00 7.4 10 Oeste 16 Sudoeste 0 -- -- 95
2021-02-11 02:00:00 7.1 9 Sudoeste 13 Sudoeste 0 -- -- 94
2021-02-11 01:00:00 6.9 7 Sudoeste 10 Sudoeste 0 -- -- 93
2021-02-11 00:00:00 6.6 6 Sur 12 Sudoeste 0.2 -- -- 91
2021-02-10 23:00:00 6 9 Sudoeste 12 Sudoeste 0 -- -- 92
2021-02-10 22:00:00 6.3 10 Sudoeste 18 Oeste 0 -- -- 89
2021-02-10 21:00:00 7.1 10 Sudoeste 24 Sudoeste 0 -- -- 83
2021-02-10 20:00:00 7.6 8 Sudoeste 18 Noroeste 0 -- -- 75
2021-02-10 19:00:00 8.9 12 Noroeste 26 Noroeste 0 -- -- 66
2021-02-10 18:00:00 10.9 13 Noroeste 33 Oeste 0 -- -- 61
2021-02-10 17:00:00 12 18 Noroeste 41 Noroeste 0 -- -- 58
2021-02-10 16:00:00 12 22 Noroeste 44 Oeste 0 -- -- 60
2021-02-10 15:00:00 12.1 30 Oeste 46 Oeste 0.2 -- -- 62
2021-02-10 14:00:00 11.1 21 Oeste 40 Noroeste 0 -- -- 82
2021-02-10 13:00:00 9.8 21 Oeste 41 Oeste 0 -- -- 94
2021-02-10 12:00:00 7.8 18 Noroeste 37 Oeste 0.4 -- -- 98
2021-02-10 11:00:00 7 22 Noroeste 44 Noroeste 1.4 -- -- 98
2021-02-10 10:00:00 6.9 18 Noroeste 48 Oeste 0.8 -- -- 96
2021-02-10 09:00:00 6.6 24 Oeste 59 Oeste 1.2 -- -- 97
2021-02-10 08:00:00 6.6 30 Oeste 55 Oeste 2 -- -- 96
2021-02-10 07:00:00 6.6 27 Oeste 41 Sudoeste 0 -- -- 94
2021-02-10 06:00:00 6.6 26 Oeste 45 Sudoeste 0.2 -- -- 89
2021-02-10 05:00:00 6.3 23 Oeste 42 Oeste 0 -- -- 87
2021-02-10 04:00:00 6.5 26 Oeste 50 Sudoeste 0 -- -- 87
2021-02-10 03:00:00 7 30 Oeste 45 Sudoeste 0 -- -- 88
2021-02-10 02:00:00 7 31 Oeste 47 Oeste 0 -- -- 90
2021-02-10 01:00:00 7.1 25 Oeste 43 Oeste 0 -- -- 94
2021-02-10 00:00:00 7.4 22 Oeste 32 Oeste 0.2 -- -- 96
2021-02-09 23:00:00 7.4 17 Oeste 46 Oeste 0 -- -- 97
2021-02-09 22:00:00 7.9 26 Oeste 59 Oeste 1 -- -- 97
2021-02-09 21:00:00 8 23 Oeste 37 Oeste 0.2 -- -- 96
2021-02-09 20:00:00 8.1 29 Oeste 49 Oeste 0 -- -- 94
2021-02-09 19:00:00 8.3 25 Oeste 45 Oeste 1.4 -- -- 97
2021-02-09 18:00:00 8.6 35 Oeste 59 Sudoeste 0.8 -- -- 95
2021-02-09 17:00:00 8.8 34 Oeste 65 Sudoeste 0.6 -- -- 93
2021-02-09 16:00:00 8.8 44 Sudoeste 68 Sudoeste 0 -- -- 93
2021-02-09 15:00:00 8.9 47 Sudoeste 81 Sudoeste 0 -- -- 87
2021-02-09 14:00:00 9.6 50 Sudoeste 76 Sudoeste 0.2 -- -- 86
2021-02-09 13:00:00 7.7 32 Sudoeste 51 Oeste 0 -- -- 92
2021-02-09 12:00:00 7.8 36 Sudoeste 63 Sudoeste 0 -- -- 84
2021-02-09 11:00:00 7.3 39 Oeste 58 Sudoeste 0 -- -- 89
2021-02-09 10:00:00 6.7 36 Sudoeste 51 Sudoeste 0 -- -- 97
2021-02-09 09:00:00 5.9 21 Sudoeste 34 Sudoeste 0 -- -- 96
2021-02-09 08:00:00 5.5 21 Sudoeste 33 Sudoeste 0.2 -- -- 96
2021-02-09 07:00:00 5.2 26 Sudoeste 39 Sudoeste 0 -- -- 97
2021-02-09 06:00:00 5.4 26 Sudoeste 37 Sudoeste 0 -- -- 95
2021-02-09 05:00:00 5.1 20 Sudoeste 30 Sudoeste 0 -- -- 95
2021-02-09 04:00:00 5.5 19 Sudoeste 27 Sudoeste 0 -- -- 95
2021-02-09 03:00:00 5.7 17 Sudoeste 27 Sudoeste 0 -- -- 94
2021-02-09 02:00:00 5.5 18 Sudoeste 31 Oeste 0 -- -- 92
2021-02-09 01:00:00 5.6 21 Sudoeste 31 Sudoeste 0 -- -- 92
2021-02-09 00:00:00 5.8 21 Oeste 40 Oeste 0.2 -- -- 92
2021-02-08 23:00:00 5.8 23 Sudoeste 39 Sudoeste 0 -- -- 91
2021-02-08 22:00:00 5.7 22 Oeste 40 Oeste 0 -- -- 90
2021-02-08 21:00:00 5.9 26 Oeste 45 Oeste 0 -- -- 90
2021-02-08 20:00:00 5.9 24 Oeste 42 Oeste 0 -- -- 91
2021-02-08 19:00:00 6.4 15 Oeste 44 Oeste 0.4 -- -- 91
2021-02-08 18:00:00 7.2 21 Oeste 40 Oeste 0.2 -- -- 85
2021-02-08 17:00:00 7.4 25 Oeste 45 Noroeste 0.4 -- -- 87
2021-02-08 16:00:00 8.5 23 Oeste 50 Oeste 0 -- -- 76
2021-02-08 15:00:00 8.2 34 Oeste 55 Oeste 0 -- -- 77
2021-02-08 14:00:00 7.4 32 Oeste 62 Oeste 0 -- -- 79
2021-02-08 13:00:00 7.2 27 Oeste 45 Sudoeste 0 -- -- 81
2021-02-08 12:00:00 6.4 28 Oeste 44 Oeste 0.2 -- -- 86
2021-02-08 11:00:00 6.1 25 Oeste 49 Oeste 0 -- -- 88
2021-02-08 10:00:00 6 32 Oeste 51 Noroeste 0 -- -- 91
2021-02-08 09:00:00 5.7 26 Oeste 54 Oeste 0.4 -- -- 93
2021-02-08 08:00:00 5.7 35 Oeste 60 Oeste 6.2 -- -- 97
2021-02-08 07:00:00 6.5 27 Sudoeste 45 Sudoeste 2 -- -- 98
2021-02-08 06:00:00 6 23 Sudoeste 39 Sudoeste 0.2 -- -- 98
2021-02-08 05:00:00 5.4 25 Sudoeste 42 Sudoeste 0 -- -- 97
2021-02-08 04:00:00 5.1 24 Sudoeste 41 Sudoeste 0 -- -- 97
2021-02-08 03:00:00 4.8 24 Sudoeste 42 Sudoeste 0 -- -- 96
2021-02-08 02:00:00 4.5 23 Sudoeste 40 Sudoeste 0 -- -- 94
2021-02-08 01:00:00 4.4 25 Sudoeste 36 Oeste 0.2 -- -- 92
2021-02-08 00:00:00 4.2 22 Sudoeste 31 Sudoeste 0 -- -- 91
2021-02-07 23:00:00 4 15 Sudoeste 31 Oeste 0 -- -- 90
2021-02-07 22:00:00 4 21 Oeste 38 Oeste 0 -- -- 87
2021-02-07 21:00:00 4.9 19 Oeste 42 Oeste 0 -- -- 83
2021-02-07 20:00:00 5.8 19 Oeste 30 Oeste 0 -- -- 82
2021-02-07 19:00:00 5.9 16 Oeste 35 Oeste 0.2 -- -- 81
2021-02-07 18:00:00 6.8 19 Oeste 38 Oeste 0 -- -- 77
2021-02-07 17:00:00 7.3 24 Oeste 41 Oeste 0 -- -- 73
2021-02-07 16:00:00 6.4 21 Oeste 43 Oeste 0 -- -- 84
2021-02-07 15:00:00 6.9 24 Oeste 40 Oeste 0 -- -- 87
2021-02-07 14:00:00 8.6 24 Oeste 37 Oeste 0.2 -- -- 82
2021-02-07 13:00:00 7.5 21 Oeste 35 Oeste 0 -- -- 88
2021-02-07 12:00:00 7.5 17 Oeste 29 Oeste 0 -- -- 89
2021-02-07 11:00:00 6.5 17 Oeste 29 Oeste 0 -- -- 96
2021-02-07 10:00:00 5.9 14 Oeste 25 Oeste 0.2 -- -- 98
2021-02-07 09:00:00 5.4 12 Oeste 21 Oeste 1 -- -- 99
2021-02-07 08:00:00 5.4 10 Noroeste 22 Noroeste 0 -- -- 99
2021-02-07 07:00:00 5.4 14 Noroeste 23 Oeste 0.2 -- -- 99
2021-02-07 06:00:00 5.5 13 Oeste 27 Oeste 0.2 -- -- 98
2021-02-07 05:00:00 5.7 15 Noroeste 24 Oeste 0.2 -- -- 98
2021-02-07 04:00:00 5.9 13 Oeste 23 Oeste 0.4 -- -- 98
2021-02-07 03:00:00 5.9 14 Oeste 23 Oeste 0.4 -- -- 97
2021-02-07 02:00:00 6.1 12 Oeste 22 Oeste 0 -- -- 96
2021-02-07 01:00:00 6.1 15 Sudoeste 22 Sudoeste 0 -- -- 96
2021-02-07 00:00:00 6.2 16 Sudoeste 21 Sudoeste 0 -- -- 95
2021-02-06 23:00:00 6.2 12 Sudoeste 18 Sudoeste 0 -- -- 94
2021-02-06 22:00:00 6.2 12 Sudoeste 19 Sudoeste 0 -- -- 93
2021-02-06 21:00:00 6.3 14 Sudoeste 23 Sudoeste 0.2 -- -- 92
2021-02-06 20:00:00 6.4 14 Sudoeste 26 Sudoeste 0 -- -- 91
2021-02-06 19:00:00 6.9 18 Sudoeste 28 Sudoeste 0 -- -- 88
2021-02-06 18:00:00 7.5 20 Oeste 37 Sudoeste 0 -- -- 85
2021-02-06 17:00:00 8.3 26 Sudoeste 35 Sudoeste 0 -- -- 84
2021-02-06 16:00:00 8.1 26 Sudoeste 39 Sudoeste 0.2 -- -- 85
2021-02-06 15:00:00 8.3 27 Sudoeste 39 Sudoeste 0 -- -- 84
2021-02-06 14:00:00 7.6 28 Sudoeste 42 Sudoeste 0 -- -- 87
2021-02-06 13:00:00 7.1 24 Sudoeste 42 Sudoeste 0 -- -- 91
2021-02-06 12:00:00 7.2 24 Sudoeste 48 Sudoeste 0.2 -- -- 85
2021-02-06 11:00:00 6.7 22 Sudoeste 33 Oeste 0 -- -- 87
2021-02-06 10:00:00 6.2 27 Sudoeste 42 Sudoeste 0 -- -- 91
2021-02-06 09:00:00 6.5 10 Sur 18 Sur 0 -- -- 95
2021-02-06 08:00:00 6.3 10 Sur 17 Sur 0.2 -- -- 95
2021-02-06 07:00:00 6.4 11 Sudoeste 21 Sudoeste 0 -- -- 95
2021-02-06 06:00:00 6 8 Sur 17 Sudoeste 0 -- -- 96
2021-02-06 05:00:00 6.1 10 Sur 17 Sudoeste 0 -- -- 95
2021-02-06 04:00:00 7 13 Sudoeste 25 Sudoeste 0.2 -- -- 93
2021-02-06 03:00:00 7.7 10 Sudoeste 23 Oeste 0 -- -- 94
2021-02-06 02:00:00 8.1 6 Sur 10 Sudoeste 0.2 -- -- 94
2021-02-06 01:00:00 8.1 6 Sudoeste 14 Sur 0 -- -- 93
2021-02-06 00:00:00 8.2 10 Sur 21 Sur 0.2 -- -- 94
2021-02-05 23:00:00 8.2 15 Sudoeste 32 Sur 0.2 -- -- 92
2021-02-05 22:00:00 8.3 8 Sur 35 Sudoeste 0.6 -- -- 92
2021-02-05 21:00:00 9.2 23 Sudoeste 41 Sudoeste 3.6 -- -- 91
2021-02-05 20:00:00 11.5 19 Oeste 34 Oeste 0 -- -- 71
2021-02-05 19:00:00 12.2 22 Sudoeste 29 Sudoeste 0 -- -- 72
2021-02-05 18:00:00 14.9 12 Sudoeste 23 Sudoeste 0 -- -- 55
2021-02-05 17:00:00 18.1 14 Oeste 22 Oeste 0 -- -- 45
2021-02-05 16:00:00 20.2 10 Sur 24 Sur 0 -- -- 40
2021-02-05 15:00:00 20.7 12 Sur 28 Sur 0 -- -- 37
2021-02-05 14:00:00 20.4 10 Sur 28 Sur 0 -- -- 37
2021-02-05 13:00:00 19.2 11 Sur 26 Sudeste 0 -- -- 40
2021-02-05 12:00:00 17.6 11 Sur 28 Sudeste 0 -- -- 40
2021-02-05 11:00:00 15.4 12 Sur 25 Sudeste 0 -- -- 48
2021-02-05 10:00:00 12.4 12 Sur 26 Sur 0 -- -- 55
2021-02-05 09:00:00 10.2 11 Sudeste 26 Sudeste 0 -- -- 57
2021-02-05 08:00:00 9.9 12 Sudeste 26 Sudeste 0 -- -- 56
2021-02-05 07:00:00 9.2 12 Sudeste 25 Sudeste 0 -- -- 60
2021-02-05 06:00:00 9.7 15 Sudeste 28 Sudeste 0 -- -- 59
2021-02-05 05:00:00 10.3 14 Sudeste 33 Sudeste 0 -- -- 56
2021-02-05 04:00:00 10.7 13 Sudeste 22 Sudeste 0 -- -- 55
2021-02-05 03:00:00 10.1 12 Sudeste 23 Sudeste 0 -- -- 60
2021-02-05 02:00:00 9.9 10 Sudeste 27 Este 0 -- -- 63
2021-02-05 01:00:00 9.2 24 Este 34 Este 0 -- -- 75
2021-02-05 00:00:00 9.4 31 Este 36 Este 0 -- -- 77
2021-02-04 23:00:00 8.7 27 Este 33 Este 0 -- -- 81
2021-02-04 22:00:00 8.9 14 Este 26 Este 0 -- -- 83
2021-02-04 21:00:00 9.7 11 Este 23 Este 0 -- -- 78
2021-02-04 20:00:00 10.4 14 Este 21 Este 0 -- -- 74
2021-02-04 19:00:00 12 5 Nordeste 10 Este 0 -- -- 70
2021-02-04 18:00:00 14 5 Norte 23 Oeste 0 -- -- 62
2021-02-04 17:00:00 16.9 18 Oeste 36 Oeste 0 -- -- 42
2021-02-04 16:00:00 17.8 26 Oeste 42 Oeste 0 -- -- 39
2021-02-04 15:00:00 18.9 28 Sudoeste 44 Sudoeste 0 -- -- 37
2021-02-04 14:00:00 18 27 Sudoeste 48 Sudoeste 0 -- -- 42
2021-02-04 13:00:00 16.4 27 Sudoeste 41 Sudoeste 0 -- -- 46
2021-02-04 12:00:00 15 21 Sudoeste 34 Sudoeste 0 -- -- 53
2021-02-04 11:00:00 12.7 10 Sur 17 Sur 0 -- -- 66
2021-02-04 10:00:00 9.4 6 Sudeste 13 Sudeste 0 -- -- 83
2021-02-04 09:00:00 6.2 7 Sudeste 13 Sudeste 0 -- -- 98
2021-02-04 08:00:00 5.6 5 Sudeste 13 Sur 0 -- -- 99
2021-02-04 07:00:00 6.3 3 Sur 13 Sur 0 -- -- 99
2021-02-04 06:00:00 6.4 9 Sur 16 Sur 0 -- -- 99
2021-02-04 05:00:00 5.8 3 Sur 10 Sur 0 -- -- 99
2021-02-04 04:00:00 6.6 4 Sur 17 Sur 0 -- -- 98
2021-02-04 03:00:00 6.1 12 Sur 16 Sur 0 -- -- 98
2021-02-04 02:00:00 5.8 12 Sur 16 Sudoeste 0 -- -- 97
2021-02-04 01:00:00 5.7 6 Sur 13 Sur 0 -- -- 96
2021-02-04 00:00:00 5.9 5 Sur 12 Sur 0 -- -- 93
2021-02-03 23:00:00 7 5 Sur 9 Sur 0 -- -- 91
2021-02-03 22:00:00 6.8 5 Sudoeste 14 Sur 0 -- -- 91
2021-02-03 21:00:00 7.1 6 Sur 14 Sur 0 -- -- 87
2021-02-03 20:00:00 7.8 8 Sur 13 Sudoeste 0 -- -- 83
2021-02-03 19:00:00 9.7 7 Sudoeste 27 Sudoeste 0 -- -- 77
2021-02-03 18:00:00 11.6 18 Sudoeste 27 Sudoeste 0 -- -- 67
2021-02-03 17:00:00 13.6 17 Sudoeste 26 Sudoeste 0 -- -- 62
2021-02-03 16:00:00 13.9 17 Sudoeste 28 Sudoeste 0 -- -- 63
2021-02-03 15:00:00 13.6 16 Sudoeste 27 Sudoeste 0 -- -- 64
2021-02-03 14:00:00 13 17 Sudoeste 24 Sudoeste 0 -- -- 68
2021-02-03 13:00:00 11.9 15 Sudoeste 28 Sur 0 -- -- 73
2021-02-03 12:00:00 10.6 17 Sudoeste 27 Sudoeste 0.2 -- -- 78
2021-02-03 11:00:00 9.1 17 Sudoeste 26 Sudoeste 0 -- -- 84
2021-02-03 10:00:00 7.7 17 Sudoeste 27 Sudoeste 0 -- -- 87
2021-02-03 09:00:00 6.6 9 Sudoeste 16 Sudoeste 0 -- -- 92
2021-02-03 08:00:00 6.3 9 Sudoeste 14 Sudoeste 0 -- -- 92
2021-02-03 07:00:00 6.3 6 Sudoeste 17 Sudoeste 0 -- -- 93
2021-02-03 06:00:00 6.6 11 Sudoeste 17 Sudoeste 0 -- -- 93
2021-02-03 05:00:00 6.9 9 Sudoeste 15 Sudoeste 0 -- -- 93
2021-02-03 04:00:00 7.3 12 Oeste 21 Oeste 0 -- -- 92
2021-02-03 03:00:00 7.5 13 Sudoeste 22 Sudoeste 0 -- -- 92
2021-02-03 02:00:00 7.6 13 Sudoeste 21 Oeste 0 -- -- 92
2021-02-03 01:00:00 7.6 17 Sudoeste 29 Sudoeste 0 -- -- 91
2021-02-03 00:00:00 7.4 13 Sudoeste 21 Oeste 0 -- -- 94
2021-02-02 23:00:00 7.3 11 Sudoeste 21 Sudoeste 0 -- -- 96
2021-02-02 22:00:00 7.5 8 Sudoeste 18 Sudoeste 0 -- -- 95
2021-02-02 21:00:00 7.8 5 Sudoeste 13 Oeste 0 -- -- 93
2021-02-02 20:00:00 9.2 8 Oeste 12 Oeste 0 -- -- 89
2021-02-02 19:00:00 11.1 7 Oeste 15 Oeste 0 -- -- 83
2021-02-02 18:00:00 13.7 9 Sudoeste 20 Sudoeste 0.2 -- -- 73
2021-02-02 17:00:00 14.8 14 Sudoeste 28 Sudoeste 0 -- -- 67
2021-02-02 16:00:00 15.6 14 Oeste 23 Oeste 0 -- -- 65
2021-02-02 15:00:00 14.8 9 Oeste 21 Sudoeste 0 -- -- 69
2021-02-02 14:00:00 14.3 10 Sudoeste 20 Sudoeste 0 -- -- 70
2021-02-02 13:00:00 12.4 12 Sudoeste 19 Sur 0 -- -- 80
2021-02-02 12:00:00 10.3 13 Sudoeste 19 Sudoeste 0 -- -- 87
2021-02-02 11:00:00 8.6 12 Sudoeste 21 Sudoeste 0 -- -- 94
2021-02-02 10:00:00 7.6 12 Sudoeste 19 Sur 0 -- -- 98
2021-02-02 09:00:00 6.8 8 Sudoeste 13 Sudoeste 0 -- -- 99
2021-02-02 08:00:00 6.5 7 Sudoeste 11 Oeste 0 -- -- 99
2021-02-02 07:00:00 6.4 8 Oeste 15 Oeste 0 -- -- 99
2021-02-02 06:00:00 6.4 12 Sudoeste 22 Sudoeste 0 -- -- 99
2021-02-02 05:00:00 6.4 13 Sudoeste 27 Sudoeste 0 -- -- 98
2021-02-02 04:00:00 6.3 17 Sudoeste 28 Sudoeste 0 -- -- 98
2021-02-02 03:00:00 5.8 13 Sudoeste 23 Sudoeste 0 -- -- 97
2021-02-02 02:00:00 5.2 14 Sudoeste 19 Sudoeste 0.2 -- -- 95
2021-02-02 01:00:00 5.9 10 Sudoeste 20 Oeste 0 -- -- 92
2021-02-02 00:00:00 6.9 13 Oeste 21 Oeste 0 -- -- 91
2021-02-01 23:00:00 6.7 13 Oeste 22 Oeste 0 -- -- 91
2021-02-01 22:00:00 7.3 10 Oeste 23 Oeste 0 -- -- 90
2021-02-01 21:00:00 8 13 Oeste 29 Oeste 0 -- -- 88
2021-02-01 20:00:00 8.6 14 Oeste 26 Oeste 0 -- -- 85
2021-02-01 19:00:00 8.8 14 Noroeste 36 Oeste 0 -- -- 84
2021-02-01 18:00:00 10 17 Noroeste 39 Oeste 0 -- -- 80
2021-02-01 17:00:00 11.4 24 Noroeste 38 Noroeste 0 -- -- 74
2021-02-01 16:00:00 11.2 24 Noroeste 38 Oeste 0 -- -- 75
2021-02-01 15:00:00 11.9 23 Noroeste 43 Oeste 0 -- -- 76
2021-02-01 14:00:00 12.9 22 Oeste 44 Oeste 0 -- -- 74
2021-02-01 13:00:00 11.8 28 Oeste 41 Oeste 0 -- -- 76
2021-02-01 12:00:00 10.8 26 Oeste 40 Oeste 0.2 -- -- 79
2021-02-01 11:00:00 9.7 27 Oeste 40 Oeste 0 -- -- 85
2021-02-01 10:00:00 8.7 27 Oeste 37 Oeste 0 -- -- 90
2021-02-01 09:00:00 8 23 Oeste 38 Oeste 0 -- -- 93
2021-02-01 08:00:00 7.7 23 Oeste 37 Oeste 0 -- -- 95
2021-02-01 07:00:00 7.9 23 Oeste 38 Oeste 0 -- -- 96
2021-02-01 06:00:00 8.1 26 Sudoeste 43 Sudoeste 0 -- -- 97
2021-02-01 05:00:00 8.5 23 Sudoeste 37 Sudoeste 0 -- -- 93
2021-02-01 04:00:00 8.8 27 Oeste 41 Oeste 0 -- -- 93
2021-02-01 03:00:00 9.1 23 Oeste 37 Oeste 0 -- -- 93
2021-02-01 02:00:00 9.4 21 Oeste 37 Oeste 0 -- -- 93
2021-02-01 01:00:00 9.6 22 Oeste 37 Oeste 0.2 -- -- 98
2021-02-01 00:00:00 9.7 26 Oeste 38 Oeste 0 -- -- 98
2021-01-31 23:00:00 9.3 27 Oeste 45 Sudoeste 0.4 -- -- 99
2021-01-31 22:00:00 8.9 28 Sudoeste 41 Sudoeste 0 -- -- 98
2021-01-31 21:00:00 8.6 25 Sudoeste 37 Oeste 0.2 -- -- 99
2021-01-31 20:00:00 8.2 26 Sudoeste 40 Sudoeste 0.4 -- -- 99
2021-01-31 19:00:00 7.8 23 Sudoeste 38 Oeste 0.8 -- -- 99
2021-01-31 18:00:00 7.7 26 Sudoeste 39 Sudoeste 0.2 -- -- 98
2021-01-31 17:00:00 7.8 24 Sudoeste 34 Sudoeste 1 -- -- 98
2021-01-31 16:00:00 7.3 22 Sudoeste 35 Sudoeste 0.2 -- -- 98
2021-01-31 15:00:00 7 25 Sudoeste 34 Sudoeste 0 -- -- 97
2021-01-31 14:00:00 7.8 27 Oeste 39 Oeste 0.2 -- -- 96
2021-01-31 13:00:00 7.3 23 Oeste 43 Oeste 0 -- -- 95
2021-01-31 12:00:00 6.6 24 Oeste 36 Oeste 0 -- -- 95
2021-01-31 11:00:00 6.5 22 Oeste 40 Oeste 0 -- -- 94
2021-01-31 10:00:00 6 18 Oeste 34 Oeste 0 -- -- 91
2021-01-31 09:00:00 5.8 17 Oeste 36 Oeste 0 -- -- 90
2021-01-31 08:00:00 5.5 20 Oeste 36 Oeste 0 -- -- 90
2021-01-31 07:00:00 5.3 19 Oeste 32 Oeste 0 -- -- 89
2021-01-31 06:00:00 5.2 24 Oeste 42 Oeste 0 -- -- 88
2021-01-31 05:00:00 5.4 26 Oeste 42 Oeste 0 -- -- 89
2021-01-31 04:00:00 5.3 21 Oeste 39 Oeste 0 -- -- 89
2021-01-31 03:00:00 5.6 23 Oeste 40 Oeste 0 -- -- 88
2021-01-31 02:00:00 5.6 18 Oeste 32 Oeste 0 -- -- 86
2021-01-31 01:00:00 5.4 19 Oeste 46 Oeste 0 -- -- 85
2021-01-31 00:00:00 6.4 32 Oeste 50 Oeste 0 -- -- 80
2021-01-30 23:00:00 6.8 22 Oeste 45 Oeste 0 -- -- 79
2021-01-30 22:00:00 7.2 23 Oeste 41 Oeste 0.2 -- -- 78
2021-01-30 21:00:00 7.6 26 Oeste 43 Oeste 0 -- -- 79
2021-01-30 20:00:00 7.8 30 Oeste 49 Oeste 0 -- -- 75
2021-01-30 19:00:00 8.1 23 Oeste 42 Oeste 0 -- -- 75
2021-01-30 18:00:00 8.9 31 Oeste 64 Oeste 0 -- -- 66
2021-01-30 17:00:00 9.8 34 Oeste 56 Noroeste 0 -- -- 62
2021-01-30 16:00:00 10.9 35 Oeste 57 Oeste 0 -- -- 57
2021-01-30 15:00:00 10.7 32 Oeste 54 Oeste 0 -- -- 62
2021-01-30 14:00:00 10.9 24 Oeste 50 Oeste 0 -- -- 67
2021-01-30 13:00:00 10.5 30 Oeste 51 Oeste 0.2 -- -- 71
2021-01-30 12:00:00 9.8 29 Oeste 50 Oeste 0.4 -- -- 85
2021-01-30 11:00:00 8.7 21 Oeste 48 Oeste 0 -- -- 96
2021-01-30 10:00:00 8.2 32 Sudoeste 46 Sudoeste 0.2 -- -- 98
2021-01-30 09:00:00 7.9 26 Sudoeste 41 Sudoeste 0 -- -- 97
2021-01-30 08:00:00 8.1 26 Sudoeste 37 Sudoeste 0 -- -- 97
2021-01-30 07:00:00 8.1 23 Sudoeste 36 Sudoeste 0 -- -- 98
2021-01-30 06:00:00 8.2 26 Sudoeste 40 Sudoeste 0 -- -- 99
2021-01-30 05:00:00 8.3 22 Sudoeste 40 Sudoeste 0 -- -- 99
2021-01-30 04:00:00 8 23 Sudoeste 43 Sudoeste 0 -- -- 99
2021-01-30 03:00:00 8.1 21 Sudoeste 36 Sudoeste 0 -- -- 98
2021-01-30 02:00:00 8.2 19 Sudoeste 31 Sudoeste 0 -- -- 98
2021-01-30 01:00:00 8.5 17 Sudoeste 28 Sudoeste 0 -- -- 98
2021-01-30 00:00:00 8.8 15 Sudoeste 23 Sudoeste 0 -- -- 97